createdAt,value
2022-12-18T00:00:59.741Z,13.70
2022-12-18T00:04:24.648Z,14.13
2022-12-18T00:07:47.656Z,14.20
2022-12-18T00:11:11.036Z,14.80
2022-12-18T00:14:32.801Z,13.80
2022-12-18T00:17:54.498Z,13.70
2022-12-18T00:21:16.490Z,13.53
2022-12-18T00:24:39.580Z,14.70
2022-12-18T00:28:01.111Z,14.23
2022-12-18T00:31:24.740Z,13.73
2022-12-18T00:34:48.526Z,13.10
2022-12-18T00:38:10.708Z,12.10
2022-12-18T00:41:51.906Z,12.03
2022-12-18T00:45:13.491Z,12.60
2022-12-18T00:48:35.126Z,12.53
2022-12-18T00:51:59.778Z,11.37
2022-12-18T00:55:21.528Z,10.93
2022-12-18T00:58:44.735Z,12.00
2022-12-18T01:02:06.548Z,11.23
2022-12-18T01:05:28.312Z,10.93
2022-12-18T01:08:50.079Z,12.97
2022-12-18T01:12:11.449Z,11.53
2022-12-18T01:15:34.727Z,11.83
2022-12-18T01:18:57.212Z,12.90
2022-12-18T01:22:18.824Z,13.23
2022-12-18T01:25:40.869Z,13.93
2022-12-18T01:29:04.979Z,12.03
2022-12-18T01:32:27.588Z,11.80
2022-12-18T01:35:49.267Z,11.97
2022-12-18T01:39:14.167Z,11.30
2022-12-18T01:42:37.453Z,10.90
2022-12-18T01:46:01.526Z,11.60
2022-12-18T01:49:24.816Z,11.13
2022-12-18T01:52:49.651Z,10.93
2022-12-18T01:56:15.631Z,12.30
2022-12-18T01:59:38.928Z,13.07
2022-12-18T02:03:01.878Z,12.90
2022-12-18T02:06:34.636Z,11.83
2022-12-18T02:10:03.335Z,11.40
2022-12-18T02:13:32.257Z,12.40
2022-12-18T02:17:00.349Z,11.63
2022-12-18T02:20:26.826Z,12.30
2022-12-18T02:23:58.612Z,13.17
2022-12-18T02:27:22.713Z,12.83
2022-12-18T02:30:47.550Z,13.43
2022-12-18T02:34:11.371Z,12.70
2022-12-18T02:37:36.377Z,13.17
2022-12-18T02:41:02.377Z,14.23
2022-12-18T02:44:25.624Z,13.57
2022-12-18T02:47:51.682Z,14.07
2022-12-18T02:51:19.585Z,13.77
2022-12-18T02:54:58.201Z,14.47
2022-12-18T02:58:22.993Z,14.10
2022-12-18T03:01:57.226Z,14.17
2022-12-18T03:05:23.009Z,15.17
2022-12-18T03:08:48.756Z,14.67
2022-12-18T03:12:26.568Z,13.93
2022-12-18T03:15:55.034Z,14.77
2022-12-18T03:19:21.616Z,15.10
2022-12-18T03:22:50.148Z,14.40
2022-12-18T03:26:17.445Z,15.03
2022-12-18T03:29:44.756Z,14.57
2022-12-18T03:33:12.973Z,15.67
2022-12-18T03:36:40.706Z,17.30
2022-12-18T03:40:02.612Z,17.03
2022-12-18T03:43:38.324Z,16.20
2022-12-18T03:47:07.568Z,15.33
2022-12-18T03:50:39.812Z,15.37
2022-12-18T03:54:05.959Z,14.03
2022-12-18T03:57:35.076Z,13.90
2022-12-18T04:01:03.368Z,14.03
2022-12-18T04:04:27.094Z,16.60
2022-12-18T04:07:51.768Z,14.53
2022-12-18T04:11:14.464Z,15.63
2022-12-18T04:14:36.680Z,15.83
2022-12-18T04:17:59.720Z,16.00
2022-12-18T04:21:27.595Z,15.83
2022-12-18T04:24:49.410Z,13.10
2022-12-18T04:28:21.611Z,13.80
2022-12-18T04:31:43.762Z,12.70
2022-12-18T04:35:11.420Z,12.33
2022-12-18T04:38:34.512Z,13.70
2022-12-18T04:42:02.693Z,11.57
2022-12-18T04:45:25.523Z,13.07
2022-12-18T04:48:48.951Z,10.77
2022-12-18T04:52:10.491Z,11.47
2022-12-18T04:55:32.305Z,12.50
2022-12-18T04:58:54.133Z,12.27
2022-12-18T05:02:16.869Z,12.67
2022-12-18T05:05:38.512Z,12.63
2022-12-18T05:09:00.779Z,11.73
2022-12-18T05:12:22.305Z,10.43
2022-12-18T05:15:44.059Z,9.53
2022-12-18T05:19:07.147Z,10.30
2022-12-18T05:22:28.964Z,9.77
2022-12-18T05:25:53.418Z,9.40
2022-12-18T05:29:15.332Z,10.60
2022-12-18T05:32:36.629Z,10.70
2022-12-18T05:36:05.299Z,10.00
2022-12-18T05:39:26.686Z,10.00
2022-12-18T05:42:48.564Z,9.37
2022-12-18T05:46:13.976Z,9.13
2022-12-18T05:49:35.799Z,9.17
2022-12-18T05:52:58.964Z,10.23
2022-12-18T05:56:22.170Z,9.33
2022-12-18T05:59:43.793Z,8.90
2022-12-18T06:03:06.060Z,9.60
2022-12-18T06:06:29.526Z,9.97
2022-12-18T06:09:52.474Z,10.50
2022-12-18T06:13:13.765Z,10.97
2022-12-18T06:16:35.681Z,10.97
2022-12-18T06:19:57.573Z,11.63
2022-12-18T06:23:19.635Z,11.33
2022-12-18T06:26:42.600Z,10.53
2022-12-18T06:30:04.589Z,10.70
2022-12-18T06:33:28.973Z,9.97
2022-12-18T06:36:50.357Z,10.67
2022-12-18T06:40:12.101Z,10.33
2022-12-18T06:43:35.366Z,10.70
2022-12-18T06:46:57.257Z,9.87
2022-12-18T06:50:18.880Z,10.23
2022-12-18T06:53:40.820Z,11.00
2022-12-18T06:57:02.765Z,11.97
2022-12-18T07:00:25.952Z,11.10
2022-12-18T07:03:47.914Z,11.90
2022-12-18T07:07:09.703Z,11.77
2022-12-18T07:10:31.565Z,10.40
2022-12-18T07:13:55.404Z,11.57
2022-12-18T07:17:18.643Z,10.80
2022-12-18T07:20:40.621Z,11.07
2022-12-18T07:24:02.279Z,11.10
2022-12-18T07:27:23.765Z,10.93
2022-12-18T07:30:45.568Z,10.57
2022-12-18T07:34:12.334Z,10.70
2022-12-18T07:37:33.977Z,10.50
2022-12-18T07:40:55.877Z,10.07
2022-12-18T07:44:17.040Z,10.23
2022-12-18T07:47:39.031Z,10.93
2022-12-18T07:51:01.854Z,11.30
2022-12-18T07:54:23.374Z,10.83
2022-12-18T07:57:55.376Z,11.07
2022-12-18T08:01:21.350Z,11.23
2022-12-18T08:04:43.388Z,11.70
2022-12-18T08:08:07.200Z,10.63
2022-12-18T08:11:30.646Z,10.37
2022-12-18T08:14:52.240Z,11.83
2022-12-18T08:18:14.641Z,9.03
2022-12-18T08:21:36.318Z,10.30
2022-12-18T08:24:59.531Z,10.33
2022-12-18T08:28:21.484Z,9.80
2022-12-18T08:31:43.334Z,10.33
2022-12-18T08:35:05.523Z,9.57
2022-12-18T08:38:27.413Z,9.97
2022-12-18T08:42:09.737Z,9.03
2022-12-18T08:45:31.654Z,9.07
2022-12-18T08:48:54.439Z,9.43
2022-12-18T08:52:16.220Z,8.93
2022-12-18T08:55:37.975Z,9.23
2022-12-18T08:59:01.393Z,9.07
2022-12-18T09:02:23.000Z,9.40
2022-12-18T09:05:45.242Z,10.63
2022-12-18T09:09:07.077Z,9.50
2022-12-18T09:12:28.812Z,10.30
2022-12-18T09:15:53.385Z,9.40
2022-12-18T09:19:15.356Z,9.97
2022-12-18T09:22:37.058Z,9.90
2022-12-18T09:26:01.243Z,10.43
2022-12-18T09:29:22.988Z,9.60
2022-12-18T09:32:45.814Z,10.13
2022-12-18T09:36:09.693Z,9.63
2022-12-18T09:39:31.468Z,10.07
2022-12-18T09:42:57.673Z,10.13
2022-12-18T09:46:26.380Z,10.17
2022-12-18T09:49:53.399Z,9.47
2022-12-18T09:53:19.559Z,9.87
2022-12-18T09:56:43.503Z,10.43
2022-12-18T10:00:13.688Z,10.53
2022-12-18T10:03:36.366Z,10.37
2022-12-18T10:07:09.074Z,10.53
2022-12-18T10:10:40.749Z,10.60
2022-12-18T10:14:11.910Z,10.00
2022-12-18T10:17:42.128Z,9.80
2022-12-18T10:21:10.434Z,10.33
2022-12-18T10:24:40.211Z,8.87
2022-12-18T10:28:12.292Z,9.83
2022-12-18T10:31:33.946Z,8.93
2022-12-18T10:35:00.729Z,11.00
2022-12-18T10:38:24.926Z,10.30
2022-12-18T10:41:48.175Z,10.63
2022-12-18T10:45:12.740Z,10.60
2022-12-18T10:48:38.076Z,11.27
2022-12-18T10:52:16.999Z,10.27
2022-12-18T10:55:41.445Z,10.20
2022-12-18T10:59:06.417Z,10.40
2022-12-18T11:02:30.863Z,10.47
2022-12-18T11:06:05.260Z,10.40
2022-12-18T11:09:28.464Z,11.60
2022-12-18T11:12:50.623Z,10.57
2022-12-18T11:16:21.760Z,10.53
2022-12-18T11:19:43.675Z,10.43
2022-12-18T11:23:08.313Z,10.33
2022-12-18T11:26:36.891Z,9.70
2022-12-18T11:30:11.153Z,10.00
2022-12-18T11:33:34.794Z,10.63
2022-12-18T11:36:56.847Z,10.77
2022-12-18T11:40:22.114Z,11.10
2022-12-18T11:43:50.400Z,11.30
2022-12-18T11:47:20.825Z,10.37
2022-12-18T11:50:51.129Z,10.33
2022-12-18T11:54:15.400Z,9.43
2022-12-18T11:57:44.349Z,9.73
2022-12-18T12:01:16.048Z,11.97
2022-12-18T12:05:03.299Z,10.27
2022-12-18T12:08:38.643Z,10.63
2022-12-18T12:12:18.789Z,10.83
2022-12-18T12:15:48.664Z,11.63
2022-12-18T12:19:26.191Z,11.13
2022-12-18T12:22:56.216Z,10.47
2022-12-18T12:26:28.338Z,10.00
2022-12-18T12:30:03.302Z,10.73
2022-12-18T12:33:36.948Z,11.63
2022-12-18T12:41:03.146Z,12.00
2022-12-18T12:44:32.502Z,12.47
2022-12-18T12:47:55.467Z,11.27
2022-12-18T12:51:21.641Z,13.40
2022-12-18T12:54:43.894Z,13.27
2022-12-18T12:58:13.826Z,12.63
2022-12-18T13:01:44.486Z,12.30
2022-12-18T13:05:17.550Z,12.77
2022-12-18T13:08:55.741Z,11.27
2022-12-18T13:12:35.866Z,11.30
2022-12-18T13:16:08.357Z,11.13
2022-12-18T13:19:31.621Z,11.80
2022-12-18T13:22:53.129Z,11.63
2022-12-18T13:26:32.976Z,10.97
2022-12-18T13:29:54.625Z,10.93
2022-12-18T13:37:54.400Z,11.20
2022-12-18T13:41:29.010Z,11.27
2022-12-18T13:44:51.161Z,11.60
2022-12-18T13:48:22.972Z,11.53
2022-12-18T13:51:47.374Z,12.50
2022-12-18T13:55:20.600Z,11.43
2022-12-18T13:58:43.506Z,10.70
2022-12-18T14:02:15.767Z,11.13
2022-12-18T14:05:40.259Z,10.33
2022-12-18T14:09:05.334Z,10.07
2022-12-18T14:12:51.599Z,10.47
2022-12-18T14:16:17.457Z,11.50
2022-12-18T14:19:42.953Z,10.80
2022-12-18T14:23:04.841Z,9.87
2022-12-18T14:26:30.251Z,10.47
2022-12-18T14:29:54.017Z,9.93
2022-12-18T14:33:17.065Z,9.67
2022-12-18T14:36:40.896Z,11.53
2022-12-18T14:40:10.947Z,11.13
2022-12-18T14:43:35.442Z,10.67
2022-12-18T14:46:58.786Z,10.77
2022-12-18T14:50:20.480Z,10.60
2022-12-18T14:53:49.131Z,11.90
2022-12-18T14:57:23.748Z,9.67
2022-12-18T15:00:45.678Z,10.50
2022-12-18T15:04:28.409Z,9.97
2022-12-18T15:07:51.552Z,10.90
2022-12-18T15:11:45.516Z,10.00
2022-12-18T15:15:28.159Z,9.40
2022-12-18T15:18:49.933Z,10.73
2022-12-18T15:22:28.325Z,12.00
2022-12-18T15:25:56.351Z,11.37
2022-12-18T15:29:21.428Z,11.00
2022-12-18T15:32:46.960Z,11.10
2022-12-18T15:36:12.621Z,9.97
2022-12-18T15:39:36.778Z,10.90
2022-12-18T15:43:15.786Z,11.23
2022-12-18T15:46:37.243Z,10.40
2022-12-18T15:49:59.067Z,9.07
2022-12-18T15:53:21.305Z,9.90
2022-12-18T15:57:01.898Z,9.83
2022-12-18T16:00:23.450Z,11.40
2022-12-18T16:03:45.102Z,12.03
2022-12-18T16:07:16.167Z,13.77
2022-12-18T16:10:43.268Z,11.90
2022-12-18T16:14:06.677Z,11.00
2022-12-18T16:17:29.910Z,12.40
2022-12-18T16:20:51.797Z,10.80
2022-12-18T16:24:17.620Z,11.50
2022-12-18T16:27:39.253Z,11.63
2022-12-18T16:31:02.226Z,11.37
2022-12-18T16:34:28.847Z,11.40
2022-12-18T16:37:50.690Z,12.53
2022-12-18T16:41:36.296Z,11.73
2022-12-18T16:44:58.210Z,11.87
2022-12-18T16:48:20.829Z,12.03
2022-12-18T16:51:42.341Z,12.00
2022-12-18T16:55:04.631Z,11.90
2022-12-18T16:58:26.228Z,11.47
2022-12-18T17:01:48.277Z,13.07
2022-12-18T17:05:11.707Z,13.10
2022-12-18T17:08:33.648Z,11.67
2022-12-18T17:11:55.372Z,13.47
2022-12-18T17:15:16.829Z,10.73
2022-12-18T17:18:40.029Z,12.00
2022-12-18T17:22:02.738Z,11.40
2022-12-18T17:25:24.083Z,11.43
2022-12-18T17:28:47.167Z,10.70
2022-12-18T17:32:08.837Z,12.57
2022-12-18T17:35:31.526Z,11.63
2022-12-18T17:38:55.455Z,11.87
2022-12-18T17:42:17.032Z,13.20
2022-12-18T17:45:39.635Z,12.30
2022-12-18T17:49:02.980Z,12.47
2022-12-18T17:52:24.588Z,12.37
2022-12-18T17:55:56.546Z,12.57
2022-12-18T17:59:17.993Z,13.00
2022-12-18T18:02:40.631Z,14.23
2022-12-18T18:06:03.747Z,14.63
2022-12-18T18:09:25.131Z,13.97
2022-12-18T18:13:14.127Z,13.27
2022-12-18T18:16:39.181Z,12.67
2022-12-18T18:20:00.699Z,13.53
2022-12-18T18:23:22.573Z,13.07
2022-12-18T18:26:46.372Z,13.53
2022-12-18T18:30:11.474Z,14.67
2022-12-18T18:33:32.904Z,13.30
2022-12-18T18:36:54.480Z,15.40
2022-12-18T18:40:16.448Z,14.67
2022-12-18T18:43:38.269Z,14.37
2022-12-18T18:47:02.265Z,14.43
2022-12-18T18:50:27.138Z,14.40
2022-12-18T18:53:50.200Z,14.33
2022-12-18T18:57:20.477Z,14.20
2022-12-18T19:00:42.447Z,15.20
2022-12-18T19:04:06.638Z,15.63
2022-12-18T19:07:30.420Z,14.23
2022-12-18T19:10:57.671Z,15.33
2022-12-18T19:14:20.302Z,15.43
2022-12-18T19:17:41.878Z,16.63
2022-12-18T19:21:07.802Z,16.07
2022-12-18T19:24:29.786Z,14.87
2022-12-18T19:27:51.050Z,16.97
2022-12-18T19:31:14.774Z,16.70
2022-12-18T19:34:37.800Z,17.17
2022-12-18T19:38:00.852Z,16.90
2022-12-18T19:41:23.161Z,16.33
2022-12-18T19:44:46.573Z,19.80
2022-12-18T19:48:09.418Z,18.70
2022-12-18T19:51:32.625Z,19.73
2022-12-18T19:54:55.665Z,17.93
2022-12-18T19:58:17.451Z,17.63
2022-12-18T20:01:41.021Z,17.70
2022-12-18T20:05:03.555Z,18.50
2022-12-18T20:08:25.144Z,18.10
2022-12-18T20:11:48.041Z,17.17
2022-12-18T20:15:11.255Z,17.50
2022-12-18T20:18:33.065Z,18.23
2022-12-18T20:21:55.666Z,16.57
2022-12-18T20:25:20.291Z,16.60
2022-12-18T20:28:43.432Z,16.30
2022-12-18T20:32:05.404Z,16.73
2022-12-18T20:35:28.229Z,16.77
2022-12-18T20:38:50.892Z,17.23
2022-12-18T20:42:12.620Z,16.93
2022-12-18T20:45:35.499Z,17.13
2022-12-18T20:48:57.996Z,16.70
2022-12-18T20:52:19.637Z,16.10
2022-12-18T20:55:44.714Z,17.77
2022-12-18T20:59:07.279Z,18.27
2022-12-18T21:02:30.441Z,16.90
2022-12-18T21:05:52.452Z,18.00
2022-12-18T21:09:13.815Z,17.87
2022-12-18T21:12:48.244Z,18.03
2022-12-18T21:16:18.943Z,18.40
2022-12-18T21:19:42.553Z,19.97
2022-12-18T21:23:16.524Z,19.00
2022-12-18T21:26:45.458Z,20.20
2022-12-18T21:30:08.913Z,20.60
2022-12-18T21:33:30.610Z,20.17
2022-12-18T21:36:54.365Z,20.37
2022-12-18T21:40:16.066Z,20.67
2022-12-18T21:43:56.146Z,21.00
2022-12-18T21:47:23.013Z,19.53
2022-12-18T21:50:44.534Z,20.10
2022-12-18T21:54:07.479Z,19.93
2022-12-18T21:57:29.477Z,19.50
2022-12-18T22:00:52.017Z,19.83
2022-12-18T22:04:14.085Z,20.23
2022-12-18T22:07:35.397Z,21.97
2022-12-18T22:10:58.627Z,20.60
2022-12-18T22:14:21.519Z,20.90
2022-12-18T22:17:43.187Z,19.93
2022-12-18T22:21:06.469Z,20.80
2022-12-18T22:24:29.798Z,19.70
2022-12-18T22:28:06.636Z,21.07
2022-12-18T22:31:28.214Z,20.63
2022-12-18T22:34:49.799Z,20.23
2022-12-18T22:38:11.861Z,21.00
2022-12-18T22:41:33.403Z,20.63
2022-12-18T22:44:56.475Z,20.80
2022-12-18T22:48:18.156Z,21.43
2022-12-18T22:51:40.923Z,20.80
2022-12-18T22:55:02.208Z,20.80
2022-12-18T22:58:24.486Z,21.60
2022-12-18T23:01:48.099Z,21.77
2022-12-18T23:05:10.805Z,20.53
2022-12-18T23:08:32.067Z,21.17
2022-12-18T23:11:53.195Z,23.43
2022-12-18T23:15:14.576Z,22.37
2022-12-18T23:18:39.781Z,22.67
2022-12-18T23:22:02.892Z,19.50
2022-12-18T23:25:25.910Z,22.70
2022-12-18T23:28:47.918Z,22.57
2022-12-18T23:32:09.763Z,21.93
2022-12-18T23:35:32.692Z,22.73
2022-12-18T23:38:55.845Z,22.30
2022-12-18T23:42:17.553Z,21.27
2022-12-18T23:45:39.837Z,21.63
2022-12-18T23:49:03.430Z,21.37
2022-12-18T23:52:28.886Z,22.23
2022-12-18T23:55:50.309Z,22.60
2022-12-18T23:59:14.104Z,21.10
